Time;durP1;ratioP1;P1;durP2;ratioP2;P2;SDS_P1;SDS_P2;PMS_P1;PMS_P2;Temp;Humidity;BMP_temperature;BMP_pressure;BME280_temperature;BME280_humidity;BME280_pressure;Samples;Min_cycle;Max_cycle;Signal;HPM_P1;HPM_P2
2021/12/25 00:00:56;;;;;;;53.67;33.95;;;;;;;6.37;100.00;99408.50;5007700;28;20032;-58
2021/12/25 00:03:23;;;;;;;50.55;35.05;;;;;;;6.13;100.00;99366.22;5007841;28;20168;-58
2021/12/25 00:05:52;;;;;;;50.63;31.45;;;;;;;6.36;100.00;99388.56;5005683;28;20049;-58
2021/12/25 00:08:20;;;;;;;49.83;33.40;;;;;;;6.41;100.00;99407.44;5005946;28;20021;-58
2021/12/25 00:10:46;;;;;;;44.80;32.38;;;;;;;5.91;100.00;99314.28;5007092;28;20036;-58
2021/12/25 00:13:11;;;;;;;45.25;34.70;;;;;;;6.42;100.00;99402.13;5007098;28;20136;-58
2021/12/25 00:15:36;;;;;;;49.42;35.38;;;;;;;6.41;100.00;99395.25;5006730;28;20029;-58
2021/12/25 00:18:02;;;;;;;47.78;33.25;;;;;;;6.41;100.00;99400.47;5006962;28;20029;-58
2021/12/25 00:20:27;;;;;;;38.22;30.30;;;;;;;6.37;100.00;99390.25;5007247;28;20567;-58
2021/12/25 00:22:53;;;;;;;40.97;30.45;;;;;;;6.27;100.00;99383.81;5007405;28;20830;-58
2021/12/25 00:25:20;;;;;;;41.92;29.13;;;;;;;6.30;100.00;99386.25;5006505;28;20053;-58
2021/12/25 00:31:01;;;;;;;34.63;23.35;;;;;;;5.86;100.00;99320.63;5006513;28;20041;-56
2021/12/25 00:35:50;;;;;;;25.63;21.48;;;;;;;6.12;100.00;99381.00;5007365;28;20068;-58
2021/12/25 00:38:15;;;;;;;28.42;20.45;;;;;;;6.07;100.00;99376.94;5007006;28;20025;-58
2021/12/25 00:40:40;;;;;;;24.40;20.33;;;;;;;6.02;100.00;99390.19;5007810;28;20025;-57
2021/12/25 00:43:06;;;;;;;30.35;20.08;;;;;;;5.97;100.00;99379.16;5006418;28;20031;-57
2021/12/25 00:45:31;;;;;;;25.92;20.35;;;;;;;5.94;100.00;99384.53;5006129;28;20886;-57
2021/12/25 00:47:56;;;;;;;23.27;19.23;;;;;;;5.44;100.00;99303.47;5005425;28;20894;-57
2021/12/25 00:50:22;;;;;;;26.15;20.08;;;;;;;5.90;100.00;99382.13;5007055;28;20025;-58
2021/12/25 00:52:47;;;;;;;29.52;19.98;;;;;;;5.88;100.00;99374.38;5006749;28;20898;-57
2021/12/25 00:55:13;;;;;;;28.70;20.55;;;;;;;5.90;100.00;99375.16;5006758;28;20056;-57
2021/12/25 00:57:38;;;;;;;30.05;21.25;;;;;;;5.89;100.00;99378.66;5005521;28;20867;-57
2021/12/25 01:00:09;;;;;;;34.50;22.42;;;;;;;5.85;100.00;99379.69;5005006;28;20037;-57
2021/12/25 01:02:36;;;;;;;31.25;24.83;;;;;;;5.58;100.00;99339.28;5003340;28;20033;-57
2021/12/25 01:05:02;;;;;;;33.80;25.20;;;;;;;5.79;100.00;99377.38;5005199;28;20039;-58
2021/12/25 01:07:27;;;;;;;34.92;26.63;;;;;;;5.78;100.00;99374.88;5038872;28;20853;-58
2021/12/25 01:09:52;;;;;;;43.42;27.58;;;;;;;5.75;100.00;99380.19;5038786;28;20131;-58
2021/12/25 01:12:18;;;;;;;41.33;29.20;;;;;;;5.73;100.00;99384.66;5006939;28;20052;-58
2021/12/25 01:14:50;;;;;;;48.40;31.70;;;;;;;5.69;100.00;99378.72;5006669;28;20900;-58
2021/12/25 01:18:41;;;;;;;50.20;33.72;;;;;;;5.63;100.00;99369.44;5005471;28;20990;-57
2021/12/25 01:25:54;;;;;;;51.22;35.92;;;;;;;5.50;100.00;99367.47;5006354;28;20064;-58
2021/12/25 01:29:07;;;;;;;61.80;39.67;;;;;;;5.46;100.00;99368.53;5006884;28;20134;-57
2021/12/25 01:31:27;;;;;;;65.55;42.05;;;;;;;5.46;100.00;99360.72;5006154;28;20041;-57
2021/12/25 01:37:02;;;;;;;63.40;39.15;;;;;;;5.32;100.00;99361.34;5006045;28;20107;-57
2021/12/25 01:47:42;;;;;;;63.15;43.30;;;;;;;5.33;100.00;99372.63;5005671;28;20140;-57
2021/12/25 01:50:13;;;;;;;55.75;38.08;;;;;;;5.27;100.00;99362.47;5004480;28;20043;-57
2021/12/25 01:52:39;;;;;;;58.78;38.03;;;;;;;5.26;100.00;99366.00;5005483;28;20032;-57
2021/12/25 01:55:08;;;;;;;52.08;37.53;;;;;;;5.13;100.00;99342.28;5004491;28;20033;-57
2021/12/25 01:57:34;;;;;;;46.20;33.45;;;;;;;4.93;100.00;99319.75;5003754;28;20937;-57
2021/12/25 02:00:00;;;;;;;53.50;35.95;;;;;;;5.24;100.00;99368.66;5005945;28;20060;-57
2021/12/25 02:02:26;;;;;;;43.58;32.72;;;;;;;5.15;100.00;99354.31;5005172;28;20136;-57
2021/12/25 02:04:52;;;;;;;41.38;31.13;;;;;;;5.23;100.00;99368.75;5005569;28;20025;-57
2021/12/25 02:07:18;;;;;;;45.42;32.80;;;;;;;5.23;100.00;99371.34;5006325;28;20250;-57
2021/12/25 02:09:44;;;;;;;45.60;33.42;;;;;;;5.20;100.00;99366.28;5006615;28;20035;-57
2021/12/25 02:12:11;;;;;;;46.28;33.65;;;;;;;5.20;100.00;99358.47;5004544;28;20033;-57
2021/12/25 02:14:37;;;;;;;45.60;31.15;;;;;;;5.20;100.00;99364.53;5005797;28;20029;-57
2021/12/25 02:17:51;;;;;;;40.72;31.55;;;;;;;4.98;100.00;99335.97;5005313;28;20025;-57
2021/12/25 02:20:14;;;;;;;37.97;29.92;;;;;;;5.14;100.00;99359.56;5005628;28;20037;-57
2021/12/25 02:22:40;;;;;;;44.17;26.50;;;;;;;4.90;100.00;99325.06;5008291;28;20029;-57
2021/12/25 02:25:06;;;;;;;37.63;28.48;;;;;;;5.12;100.00;99359.66;5006442;28;20478;-57
2021/12/25 02:27:31;;;;;;;36.45;26.48;;;;;;;5.12;100.00;99359.66;5006364;28;20639;-57
2021/12/25 02:29:57;;;;;;;32.80;26.85;;;;;;;5.00;100.00;99343.75;5006767;28;20033;-57
2021/12/25 02:32:22;;;;;;;35.25;27.60;;;;;;;5.10;100.00;99364.06;5005735;28;20021;-57
2021/12/25 02:34:49;;;;;;;33.70;26.67;;;;;;;5.09;100.00;99359.78;5005930;28;20032;-57
2021/12/25 02:37:15;;;;;;;38.35;26.35;;;;;;;5.09;100.00;99359.78;5005055;28;20045;-57
2021/12/25 02:39:40;;;;;;;37.08;25.48;;;;;;;5.07;100.00;99356.38;5004009;28;20091;-57
2021/12/25 02:42:06;;;;;;;32.67;24.40;;;;;;;5.05;100.00;99363.44;5004223;28;20025;-57
2021/12/25 02:44:31;;;;;;;36.38;26.23;;;;;;;5.05;100.00;99363.44;5040439;28;20033;-57
2021/12/25 02:46:59;;;;;;;38.72;25.13;;;;;;;4.68;100.00;99308.72;5008157;28;21058;-57
2021/12/25 02:49:24;;;;;;;33.00;23.95;;;;;;;5.01;100.00;99361.88;5009576;28;20398;-57
2021/12/25 02:51:52;;;;;;;36.45;27.27;;;;;;;4.86;100.00;99333.94;5009174;28;20025;-57
2021/12/25 02:54:17;;;;;;;35.00;27.75;;;;;;;5.01;100.00;99359.28;5008788;28;20021;-57
2021/12/25 02:56:42;;;;;;;33.13;26.73;;;;;;;4.99;100.00;99358.50;5009539;28;20857;-57
2021/12/25 02:59:12;;;;;;;45.67;29.27;;;;;;;4.92;100.00;99345.81;5009127;28;20029;-57
2021/12/25 03:01:37;;;;;;;36.85;27.73;;;;;;;4.71;100.00;99310.34;5007144;28;20886;-57
2021/12/25 03:04:05;;;;;;;33.90;25.02;;;;;;;4.97;100.00;99357.72;5009090;28;20059;-57
2021/12/25 03:06:34;;;;;;;35.33;25.08;;;;;;;4.93;100.00;99353.56;5007700;28;20914;-57
2021/12/25 03:08:59;;;;;;;35.28;24.23;;;;;;;4.88;100.00;99355.53;5006983;28;20928;-57
2021/12/25 03:11:25;;;;;;;30.05;23.90;;;;;;;4.85;100.00;99353.06;5009056;28;20057;-57
2021/12/25 03:13:58;;;;;;;29.33;22.27;;;;;;;4.83;100.00;99356.66;5008450;28;20059;-57
2021/12/25 03:16:23;;;;;;;26.15;21.45;;;;;;;4.79;100.00;99353.34;5009336;28;20092;-57
2021/12/25 03:18:52;;;;;;;29.05;21.70;;;;;;;4.77;100.00;99347.31;5009285;28;20883;-57
2021/12/25 03:21:18;;;;;;;28.30;22.30;;;;;;;4.76;100.00;99363.88;5007606;28;20419;-57
2021/12/25 03:23:44;;;;;;;30.30;23.58;;;;;;;4.73;100.00;99361.38;5009392;28;20242;-57
2021/12/25 03:26:10;;;;;;;26.73;20.58;;;;;;;4.72;100.00;99359.72;5008593;28;20029;-57
2021/12/25 03:28:39;;;;;;;25.45;20.23;;;;;;;4.69;100.00;99353.78;5008228;28;20029;-57
2021/12/25 03:31:13;;;;;;;26.52;19.65;;;;;;;4.68;100.00;99365.94;5007138;28;20021;-58
2021/12/25 03:33:38;;;;;;;23.50;18.90;;;;;;;4.67;100.00;99358.19;5007267;28;20029;-57
2021/12/25 03:36:04;;;;;;;25.33;18.55;;;;;;;4.51;100.00;99345.00;5009059;28;20792;-57
2021/12/25 03:38:30;;;;;;;23.83;19.60;;;;;;;4.54;100.00;99363.09;5008210;28;20032;-57
2021/12/25 03:40:56;;;;;;;27.52;20.65;;;;;;;4.45;100.00;99350.47;5007881;28;20033;-57
2021/12/25 03:43:22;;;;;;;24.60;19.83;;;;;;;4.50;100.00;99371.91;5006496;28;20029;-57
2021/12/25 03:45:49;;;;;;;24.98;19.40;;;;;;;4.16;100.00;99304.06;5008825;28;20029;-57
2021/12/25 03:59:05;;;;;;;23.45;18.95;;;;;;;4.36;100.00;99358.69;5007039;28;20154;-57
2021/12/25 04:01:56;;;;;;;24.27;18.83;;;;;;;4.31;100.00;99364.06;5007031;28;20044;-57
2021/12/25 04:04:22;;;;;;;22.10;17.85;;;;;;;4.28;100.00;99368.53;5006788;28;20144;-57
2021/12/25 04:07:00;;;;;;;23.35;18.60;;;;;;;4.25;100.00;99363.47;5007924;28;20136;-57
2021/12/25 04:09:28;;;;;;;22.25;19.05;;;;;;;4.22;100.00;99380.03;5008083;28;20095;-57
2021/12/25 04:12:02;;;;;;;25.73;20.48;;;;;;;4.20;100.00;99370.59;5006477;28;20382;-57
2021/12/25 04:14:27;;;;;;;26.52;21.45;;;;;;;4.21;100.00;99374.91;5007715;28;20369;-57
2021/12/25 04:16:53;;;;;;;26.75;21.38;;;;;;;3.89;100.00;99324.22;5007017;28;20037;-57
2021/12/25 04:19:19;;;;;;;24.88;20.55;;;;;;;4.19;100.00;99368.94;5007700;28;20029;-57
2021/12/25 04:21:54;;;;;;;28.10;21.90;;;;;;;4.16;100.00;99369.06;5005886;28;20104;-57
2021/12/25 04:24:20;;;;;;;32.85;24.25;;;;;;;4.16;100.00;99363.84;5006201;28;20029;-57
2021/12/25 04:26:47;;;;;;;30.52;23.23;;;;;;;4.17;100.00;99375.91;5005637;28;20036;-58
2021/12/25 04:29:35;;;;;;;29.95;22.83;;;;;;;4.13;100.00;99376.03;5006235;28;20075;-57
2021/12/25 04:32:28;;;;;;;27.75;21.58;;;;;;;4.08;100.00;99383.19;5005450;28;20087;-57
2021/12/25 05:02:05;;;;;;;29.52;20.23;;;;;;;3.50;100.00;99368.19;5006240;28;20926;-57
2021/12/25 05:04:36;;;;;;;28.27;20.00;;;;;;;2.93;100.00;99296.81;5007477;28;20053;-57
2021/12/25 05:07:03;;;;;;;26.63;19.77;;;;;;;3.55;100.00;99402.59;5006497;28;20145;-57
2021/12/25 05:09:28;;;;;;;27.15;20.05;;;;;;;3.39;100.00;99388.50;5005852;28;20033;-57
2021/12/25 05:11:53;;;;;;;28.58;19.98;;;;;;;3.50;100.00;99425.31;5006459;28;20124;-56
2021/12/25 05:14:19;;;;;;;30.15;21.63;;;;;;;3.47;100.00;99420.25;5006713;28;20029;-56
2021/12/25 05:16:44;;;;;;;28.65;19.88;;;;;;;3.41;100.00;99420.47;5004999;28;20054;-56
2021/12/25 05:19:10;;;;;;;29.25;20.67;;;;;;;3.36;100.00;99427.56;5005348;28;20032;-56
2021/12/25 05:21:35;;;;;;;30.02;21.33;;;;;;;3.31;100.00;99426.91;5006657;28;20028;-57
2021/12/25 05:24:01;;;;;;;26.40;20.83;;;;;;;3.27;100.00;99427.91;5005542;28;20033;-56
2021/12/25 05:26:26;;;;;;;28.63;21.48;;;;;;;3.23;100.00;99428.91;5007015;28;20045;-56
2021/12/25 05:28:59;;;;;;;28.90;20.60;;;;;;;3.21;100.00;99428.16;5006752;28;20055;-56
2021/12/25 05:31:25;;;;;;;34.38;21.70;;;;;;;3.16;100.00;99424.84;5005743;28;20036;-57
2021/12/25 05:33:51;;;;;;;24.48;20.60;;;;;;;3.12;100.00;99438.84;5004777;28;20021;-57
2021/12/25 05:36:16;;;;;;;28.50;20.33;;;;;;;3.07;100.00;99432.09;5005431;28;20036;-57
2021/12/25 05:38:42;;;;;;;28.85;21.42;;;;;;;3.04;100.00;99426.16;5006616;28;20024;-56
2021/12/25 05:41:07;;;;;;;29.45;20.17;;;;;;;2.99;100.00;99428.91;5005352;28;20021;-56
2021/12/25 05:43:33;;;;;;;30.60;22.48;;;;;;;2.98;100.00;99428.94;5006206;28;20029;-56
2021/12/25 05:45:58;;;;;;;30.70;21.20;;;;;;;2.92;100.00;99432.59;5007546;28;20028;-57
2021/12/25 05:48:23;;;;;;;32.20;22.10;;;;;;;2.88;100.00;99435.34;5004350;28;20025;-56
2021/12/25 05:50:49;;;;;;;28.83;21.08;;;;;;;2.87;100.00;99444.06;5006389;28;20885;-57
2021/12/25 05:53:15;;;;;;;34.08;23.83;;;;;;;2.76;100.00;99434.03;5006422;28;20152;-57
2021/12/25 05:55:40;;;;;;;28.13;23.08;;;;;;;2.82;100.00;99451.13;5005928;28;20056;-57
2021/12/25 05:58:07;;;;;;;37.42;23.70;;;;;;;2.77;100.00;99451.28;5004376;28;20086;-56
2021/12/25 06:00:33;;;;;;;33.17;22.63;;;;;;;2.75;100.00;99460.88;5006182;28;20033;-56
2021/12/25 06:02:59;;;;;;;31.88;22.52;;;;;;;2.75;100.00;99466.03;5005714;28;20053;-56
2021/12/25 06:05:26;;;;;;;34.63;23.42;;;;;;;2.74;100.00;99468.72;5005829;28;20028;-57
2021/12/25 06:07:52;;;;;;;32.00;21.73;;;;;;;2.73;100.00;99470.44;5006510;28;20178;-56
2021/12/25 06:10:17;;;;;;;35.45;23.55;;;;;;;2.72;100.00;99473.94;5006811;28;20029;-56
2021/12/25 06:12:44;;;;;;;32.38;24.35;;;;;;;2.70;100.00;99473.16;5004443;28;20025;-56
2021/12/25 06:15:13;;;;;;;31.40;24.60;;;;;;;2.66;100.00;99476.75;5004084;28;20025;-57
2021/12/25 06:17:38;;;;;;;35.28;24.73;;;;;;;2.64;100.00;99477.69;5005430;28;20021;-57
2021/12/25 06:20:05;;;;;;;34.47;25.52;;;;;;;2.61;100.00;99489.00;5005050;28;20040;-57
2021/12/25 06:22:31;;;;;;;33.03;25.02;;;;;;;2.59;100.00;99490.78;5004477;28;20037;-57
2021/12/25 06:24:56;;;;;;;35.22;25.30;;;;;;;2.54;100.00;99488.34;5004198;28;20131;-57
2021/12/25 06:27:22;;;;;;;47.08;25.90;;;;;;;2.29;100.00;99456.34;5005994;28;20036;-57
2021/12/25 06:29:49;;;;;;;33.58;24.92;;;;;;;2.44;100.00;99486.09;5005764;28;20044;-57
2021/12/25 06:32:14;;;;;;;35.60;23.88;;;;;;;2.40;100.00;99492.28;5005630;28;20029;-57
2021/12/25 06:34:40;;;;;;;31.48;22.80;;;;;;;2.33;100.00;99494.19;5005354;28;20928;-57
2021/12/25 06:37:06;;;;;;;32.25;24.30;;;;;;;2.27;100.00;99489.22;5006080;28;20875;-57
2021/12/25 06:39:32;;;;;;;32.10;23.33;;;;;;;2.24;100.00;99499.69;5004746;28;20023;-57
2021/12/25 06:41:58;;;;;;;36.83;25.17;;;;;;;2.18;100.00;99499.88;5005060;28;20130;-57
2021/12/25 06:44:25;;;;;;;32.60;24.80;;;;;;;2.16;100.00;99495.66;5003839;28;20028;-57
2021/12/25 06:46:51;;;;;;;32.78;24.55;;;;;;;2.13;100.00;99506.09;5006100;28;20047;-57
2021/12/25 06:49:17;;;;;;;33.33;25.88;;;;;;;2.12;100.00;99499.22;5006871;28;20021;-58
2021/12/25 06:51:42;;;;;;;37.40;26.02;;;;;;;2.10;100.00;99501.00;5004088;28;20063;-57
2021/12/25 06:54:08;;;;;;;40.17;27.35;;;;;;;1.57;100.00;99420.59;5005937;28;20033;-57
2021/12/25 06:56:33;;;;;;;40.90;29.00;;;;;;;2.06;100.00;99495.91;5003967;28;20883;-57
2021/12/25 06:58:59;;;;;;;35.13;27.40;;;;;;;2.08;100.00;99507.97;5005157;28;20056;-56
2021/12/25 07:01:24;;;;;;;36.22;27.42;;;;;;;2.07;100.00;99507.13;5005153;28;20132;-57
2021/12/25 07:03:50;;;;;;;36.85;26.90;;;;;;;1.91;100.00;99486.03;5007687;28;20815;-57
2021/12/25 07:06:15;;;;;;;40.58;29.70;;;;;;;2.02;100.00;99515.06;5009448;28;20027;-57
2021/12/25 07:08:41;;;;;;;34.92;28.05;;;;;;;1.99;100.00;99509.94;5008668;28;20037;-57
2021/12/25 07:11:06;;;;;;;40.08;28.52;;;;;;;1.98;100.00;99503.09;5007325;28;20033;-58
2021/12/25 07:13:31;;;;;;;38.28;27.13;;;;;;;1.63;100.00;99458.38;5004634;28;20037;-57
2021/12/25 07:15:57;;;;;;;40.13;27.23;;;;;;;1.92;100.00;99513.63;5006671;28;20033;-57
2021/12/25 07:18:22;;;;;;;43.13;28.08;;;;;;;1.89;100.00;99533.59;5005627;28;20778;-57
2021/12/25 07:20:48;;;;;;;40.25;29.35;;;;;;;1.87;100.00;99520.66;5002176;28;20033;-58
2021/12/25 07:23:17;;;;;;;45.85;33.00;;;;;;;1.85;100.00;99525.06;5002067;28;20040;-59
2021/12/25 07:25:44;;;;;;;39.83;31.20;;;;;;;1.84;100.00;99536.31;5005679;28;20083;-59
2021/12/25 07:28:09;;;;;;;36.90;29.88;;;;;;;1.75;100.00;99526.22;5003990;28;20138;-57
2021/12/25 07:30:35;;;;;;;40.45;29.52;;;;;;;1.66;100.00;99525.59;5008200;28;20884;-56
2021/12/25 07:33:01;;;;;;;41.30;31.40;;;;;;;1.73;100.00;99533.16;5008632;28;20881;-56
2021/12/25 07:35:27;;;;;;;42.85;30.92;;;;;;;1.72;100.00;99541.84;5009112;28;20036;-56
2021/12/25 07:37:52;;;;;;;43.95;31.17;;;;;;;1.71;100.00;99547.91;5007767;28;20037;-56
2021/12/25 07:40:18;;;;;;;41.20;30.48;;;;;;;1.74;100.00;99546.97;4990051;28;20049;-56
2021/12/25 07:42:43;;;;;;;43.08;31.92;;;;;;;1.72;100.00;99544.44;4988735;28;20036;-57
2021/12/25 07:45:10;;;;;;;40.28;30.15;;;;;;;1.55;100.00;99518.16;4989316;28;20138;-57
2021/12/25 07:47:40;;;;;;;41.70;28.98;;;;;;;1.68;100.00;99544.56;4988843;28;20032;-56
2021/12/25 07:50:06;;;;;;;39.88;29.33;;;;;;;1.65;100.00;99555.84;4989764;28;20037;-56
2021/12/25 07:52:32;;;;;;;37.22;28.30;;;;;;;1.62;100.00;99558.53;4989826;28;20084;-56
2021/12/25 07:54:57;;;;;;;43.38;28.77;;;;;;;1.55;100.00;99554.41;4989457;28;20025;-56
2021/12/25 07:57:22;;;;;;;40.65;29.00;;;;;;;1.48;100.00;99547.69;4994485;28;20033;-52
2021/12/25 07:59:48;;;;;;;43.30;30.63;;;;;;;1.54;100.00;99563.91;5005986;28;20029;-56
2021/12/25 08:02:14;;;;;;;46.03;28.80;;;;;;;1.53;100.00;99569.97;5007253;28;20032;-57
2021/12/25 08:04:39;;;;;;;38.78;29.73;;;;;;;1.34;100.00;99536.84;5008753;28;20025;-56
2021/12/25 08:07:04;;;;;;;38.13;29.02;;;;;;;1.50;100.00;99569.19;5007594;28;20032;-58
2021/12/25 08:09:31;;;;;;;43.08;28.98;;;;;;;1.47;100.00;99571.88;5009402;28;20040;-54
2021/12/25 08:11:58;;;;;;;35.95;27.25;;;;;;;1.41;100.00;99566.84;5004389;28;20013;-58
2021/12/25 08:14:25;;;;;;;35.22;27.70;;;;;;;1.43;100.00;99580.59;5004945;28;20033;-57
2021/12/25 08:16:59;;;;;;;36.97;26.35;;;;;;;1.39;100.00;99581.56;5007478;28;20130;-55
2021/12/25 08:19:24;;;;;;;35.80;26.42;;;;;;;1.38;100.00;99574.72;5008734;28;20032;-58
2021/12/25 08:21:50;;;;;;;39.13;28.02;;;;;;;1.35;100.00;99575.63;5008595;28;20032;-57
2021/12/25 08:24:16;;;;;;;36.55;28.10;;;;;;;1.34;100.00;99586.03;5008854;28;20029;-57
2021/12/25 08:26:43;;;;;;;40.45;28.33;;;;;;;1.34;100.00;99596.38;5008461;28;20025;-58
2021/12/25 08:29:08;;;;;;;39.67;29.52;;;;;;;1.31;100.00;99589.53;5007791;28;20029;-57
2021/12/25 08:31:34;;;;;;;38.85;28.58;;;;;;;1.27;100.00;99600.00;5007328;28;20141;-57
2021/12/25 08:33:59;;;;;;;36.38;26.63;;;;;;;1.27;100.00;99595.69;5007528;28;20048;-58
2021/12/25 08:36:25;;;;;;;39.92;29.45;;;;;;;1.30;100.00;99610.28;5008485;28;20044;-58
2021/12/25 08:38:50;;;;;;;44.47;32.40;;;;;;;1.10;100.00;99573.72;5005439;28;20036;-59
2021/12/25 08:41:16;;;;;;;39.85;29.20;;;;;;;1.26;100.00;99604.31;5008265;28;20041;-59
2021/12/25 08:43:47;;;;;;;43.42;31.58;;;;;;;1.24;100.00;99605.25;5005711;28;20017;-60
2021/12/25 08:46:41;;;;;;;44.40;31.25;;;;;;;1.24;100.00;99600.09;5001893;28;20044;-60
2021/12/25 08:49:03;;;;;;;41.70;31.50;;;;;;;1.25;100.00;99612.13;5007065;28;20824;-60
2021/12/25 08:51:28;;;;;;;41.03;30.90;;;;;;;1.20;100.00;99601.03;5008245;28;20124;-61
2021/12/25 08:53:53;;;;;;;45.05;33.75;;;;;;;1.19;100.00;99613.13;5008554;28;21099;-59
2021/12/25 08:56:19;;;;;;;44.20;32.53;;;;;;;1.19;100.00;99614.84;5009348;28;20033;-61
2021/12/25 08:58:44;;;;;;;41.55;31.83;;;;;;;1.19;100.00;99622.63;5009329;28;20025;-60
2021/12/25 09:01:11;;;;;;;43.83;32.17;;;;;;;1.19;100.00;99618.28;5009672;28;20065;-59
2021/12/25 09:03:37;;;;;;;46.80;32.60;;;;;;;1.22;100.00;99627.72;5009785;28;20064;-58
2021/12/25 09:06:02;;;;;;;49.83;34.88;;;;;;;1.21;100.00;99633.78;5009062;28;20029;-56
2021/12/25 09:08:28;;;;;;;45.72;32.38;;;;;;;1.06;100.00;99605.69;5007903;28;20869;-60
2021/12/25 09:10:54;;;;;;;45.25;32.65;;;;;;;1.21;100.00;99631.22;5008922;28;20029;-60
2021/12/25 09:13:20;;;;;;;47.30;33.30;;;;;;;1.19;100.00;99628.66;5010080;28;20957;-60
2021/12/25 09:15:45;;;;;;;44.95;33.60;;;;;;;1.15;100.00;99632.19;5008242;28;20025;-57
2021/12/25 09:18:11;;;;;;;42.78;32.28;;;;;;;1.14;100.00;99638.28;5008975;28;20059;-57
2021/12/25 09:20:37;;;;;;;48.97;34.42;;;;;;;1.14;100.00;99640.00;5008035;28;20912;-56
2021/12/25 09:23:03;;;;;;;45.60;32.97;;;;;;;1.09;100.00;99647.00;5006666;28;20043;-58
2021/12/25 09:25:29;;;;;;;39.25;31.48;;;;;;;1.08;100.00;99650.50;5007485;28;20021;-58
2021/12/25 09:27:55;;;;;;;53.25;33.83;;;;;;;0.70;100.00;99587.63;5007691;28;20086;-60
2021/12/25 09:30:21;;;;;;;46.35;34.40;;;;;;;0.89;100.00;99625.06;5009194;28;20032;-57
2021/12/25 09:32:46;;;;;;;48.38;35.40;;;;;;;1.06;100.00;99652.25;5008299;28;20894;-57
2021/12/25 09:35:12;;;;;;;48.00;34.92;;;;;;;1.05;100.00;99661.75;5009423;28;20046;-58
2021/12/25 09:37:38;;;;;;;51.72;36.47;;;;;;;1.00;100.00;99664.47;5008523;28;20029;-58
2021/12/25 09:40:05;;;;;;;48.40;35.30;;;;;;;1.00;100.00;99676.53;5008515;28;21080;-58
2021/12/25 09:42:30;;;;;;;51.88;34.60;;;;;;;0.97;100.00;99674.88;5008714;28;20033;-59
2021/12/25 09:44:55;;;;;;;45.28;33.33;;;;;;;0.97;100.00;99684.38;5007669;28;20145;-59
2021/12/25 09:47:21;;;;;;;44.03;32.15;;;;;;;0.96;100.00;99688.69;5008370;28;20029;-59
2021/12/25 09:49:47;;;;;;;49.85;33.58;;;;;;;0.95;100.00;99707.66;5007691;28;20033;-59
2021/12/25 09:52:12;;;;;;;47.97;31.90;;;;;;;0.93;100.00;99691.34;5007315;28;20890;-58
2021/12/25 09:54:38;;;;;;;43.90;32.30;;;;;;;0.93;100.00;99693.09;5007857;28;20098;-59
2021/12/25 09:57:03;;;;;;;46.95;34.08;;;;;;;0.93;100.00;99695.66;5010007;28;20037;-57
2021/12/25 09:59:29;;;;;;;47.03;32.85;;;;;;;0.43;100.00;99603.75;5008132;28;20932;-58
2021/12/25 10:01:56;;;;;;;41.78;32.35;;;;;;;0.94;100.00;99689.63;5007766;28;20920;-58
2021/12/25 10:04:41;;;;;;;49.83;33.55;;;;;;;0.97;100.00;99685.22;5006549;28;20025;-58
2021/12/25 10:07:23;;;;;;;44.63;33.15;;;;;;;1.02;100.00;99675.63;5006075;28;20483;-57
2021/12/25 10:10:10;;;;;;;43.65;31.73;;;;;;;0.76;100.00;99625.38;5006704;28;20037;-54
2021/12/25 10:12:44;;;;;;;47.58;31.90;;;;;;;1.03;100.00;99668.72;4987740;28;20919;-58
2021/12/25 10:15:14;;;;;;;44.30;32.83;;;;;;;1.06;100.00;99667.78;5005085;28;20025;-54
2021/12/25 10:17:51;;;;;;;43.80;32.05;;;;;;;1.07;100.00;99661.72;5007518;28;20136;-54
2021/12/25 10:20:25;;;;;;;43.88;31.98;;;;;;;0.83;100.00;99630.38;5005055;28;20040;-57
2021/12/25 10:23:11;;;;;;;50.65;33.83;;;;;;;1.11;100.00;99681.47;5003569;28;20032;-58
2021/12/25 10:25:55;;;;;;;49.70;33.13;;;;;;;1.09;100.00;99684.06;5006608;28;20060;-57
2021/12/25 10:28:26;;;;;;;44.97;30.30;;;;;;;1.17;100.00;99699.41;5001364;28;20198;-58
2021/12/25 10:31:28;;;;;;;45.25;31.33;;;;;;;1.03;100.00;99673.88;5006767;28;20029;-58
2021/12/25 10:33:54;;;;;;;48.70;32.05;;;;;;;1.04;100.00;99678.19;5000499;28;20052;-58
2021/12/25 10:36:30;;;;;;;43.30;31.50;;;;;;;1.14;100.00;99700.34;5004611;28;20029;-58
2021/12/25 10:39:06;;;;;;;46.40;32.38;;;;;;;1.13;100.00;99690.03;5001594;28;20024;-58
2021/12/25 10:41:35;;;;;;;40.80;31.25;;;;;;;1.14;100.00;99681.38;5003550;28;20442;-57
2021/12/25 10:44:39;;;;;;;43.40;32.67;;;;;;;1.18;100.00;99680.44;5005963;28;20136;-57
2021/12/25 10:47:16;;;;;;;43.78;31.65;;;;;;;1.22;100.00;99669.97;5005266;28;20098;-57
2021/12/25 10:49:48;;;;;;;41.47;30.30;;;;;;;0.99;100.00;99639.47;5001599;28;20084;-58
2021/12/25 10:52:22;;;;;;;47.88;31.77;;;;;;;1.27;100.00;99677.63;5003568;28;20033;-58
2021/12/25 10:54:55;;;;;;;40.92;30.00;;;;;;;1.28;100.00;99679.31;5002069;28;20025;-58
2021/12/25 10:57:40;;;;;;;40.30;29.60;;;;;;;1.28;100.00;99672.41;5003155;28;20036;-58
2021/12/25 11:00:10;;;;;;;43.15;30.58;;;;;;;1.30;100.00;99668.06;5004417;28;20072;-58
2021/12/25 11:02:38;;;;;;;45.08;30.63;;;;;;;1.35;100.00;99673.13;5005623;28;20028;-59
2021/12/25 11:05:27;;;;;;;46.25;31.00;;;;;;;1.35;100.00;99658.41;5007315;28;20132;-58
2021/12/25 11:08:15;;;;;;;44.38;31.10;;;;;;;1.38;100.00;99662.69;5008544;28;20069;-58
2021/12/25 11:10:49;;;;;;;46.88;31.10;;;;;;;1.39;100.00;99656.59;4996500;28;20029;-58
2021/12/25 11:13:42;;;;;;;41.05;29.70;;;;;;;1.40;100.00;99653.13;5007045;28;20140;-57
2021/12/25 11:19:09;;;;;;;37.92;30.23;;;;;;;1.41;100.00;99649.66;5007937;28;20893;-57
2021/12/25 11:21:43;;;;;;;42.92;30.30;;;;;;;1.37;100.00;99658.41;5009731;28;20084;-56
2021/12/25 11:24:16;;;;;;;;;;;;;;;1.35;100.00;99649.84;5003557;28;20037;-57
2021/12/25 11:26:44;;;;;;;43.78;31.45;;;;;;;1.31;100.00;99648.19;5009081;28;20740;-56
2021/12/25 11:29:12;;;;;;;47.67;33.25;;;;;;;1.25;100.00;99646.59;5008251;28;20283;-57
2021/12/25 11:31:39;;;;;;;43.05;31.45;;;;;;;1.27;100.00;99662.09;5008032;28;20029;-58
2021/12/25 11:34:05;;;;;;;43.17;30.13;;;;;;;1.28;100.00;99659.47;5006508;28;20068;-57
2021/12/25 11:36:31;;;;;;;47.58;32.10;;;;;;;1.34;100.00;99655.88;5009604;28;20025;-58
2021/12/25 11:38:56;;;;;;;42.20;30.50;;;;;;;1.34;100.00;99655.88;5009906;28;20870;-58
2021/12/25 11:41:28;;;;;;;42.65;31.40;;;;;;;1.16;100.00;99620.09;5011575;28;20079;-58
2021/12/25 11:43:54;;;;;;;43.78;30.83;;;;;;;1.37;100.00;99655.81;5027197;28;20032;-58
2021/12/25 11:46:20;;;;;;;41.20;28.40;;;;;;;1.36;100.00;99665.31;5026827;28;20085;-56
2021/12/25 11:49:09;;;;;;;40.08;29.50;;;;;;;1.39;100.00;99672.13;5027496;28;20058;-56
2021/12/25 11:51:35;;;;;;;39.85;29.67;;;;;;;1.37;100.00;99674.78;5028515;28;20028;-58
2021/12/25 11:56:41;;;;;;;42.17;28.90;;;;;;;1.26;100.00;99670.72;5029952;28;20071;-58
2021/12/25 11:59:12;;;;;;;41.05;29.63;;;;;;;1.20;100.00;99673.47;5030584;28;20024;-58
2021/12/25 12:01:42;;;;;;;41.90;28.88;;;;;;;1.17;100.00;99660.63;5029814;28;20031;-57
2021/12/25 12:04:10;;;;;;;40.03;28.95;;;;;;;1.15;100.00;99657.22;5027029;28;20061;-58
2021/12/25 12:06:45;;;;;;;41.72;28.90;;;;;;;1.13;100.00;99654.66;5028115;28;20035;-57
2021/12/25 12:09:12;;;;;;;45.17;28.70;;;;;;;0.82;100.00;99610.59;5027749;28;20123;-57
2021/12/25 12:11:40;;;;;;;40.70;28.45;;;;;;;1.07;100.00;99666.91;5028672;28;20033;-58
2021/12/25 12:14:17;;;;;;;39.55;28.50;;;;;;;1.07;100.00;99665.16;5028603;28;20584;-58
2021/12/25 12:16:48;;;;;;;37.80;28.38;;;;;;;1.10;100.00;99669.41;5028201;28;20133;-57
2021/12/25 12:22:44;;;;;;;37.15;26.15;;;;;;;0.82;100.00;99641.59;5027099;28;20071;-58
2021/12/25 12:25:59;;;;;;;39.50;26.52;;;;;;;1.00;100.00;99667.06;5025913;28;20064;-58
2021/12/25 12:28:15;;;;;;;33.95;23.75;;;;;;;0.98;100.00;99666.22;5025484;28;20921;-58
2021/12/25 12:30:45;;;;;;;33.35;25.35;;;;;;;0.99;100.00;99665.34;5027093;28;20140;-58
2021/12/25 12:33:17;;;;;;;34.13;24.25;;;;;;;1.08;100.00;99650.50;5010539;28;20098;-57